Time;durP1;ratioP1;P1;durP2;ratioP2;P2;SDS_P1;SDS_P2;PMS_P1;PMS_P2;Temp;Humidity;BMP_temperature;BMP_pressure;BME280_temperature;BME280_humidity;BME280_pressure;Samples;Min_cycle;Max_cycle;Signal;HPM_P1;HPM_P2
2020/12/28 00:00:42;;;;;;;39.33;20.05;;;;;;;4.35;59.42;98293.66;4398698;32;20146;-93
2020/12/28 00:03:08;;;;;;;33.50;17.55;;;;;;;4.77;59.44;98286.34;4411115;32;20149;-91
2020/12/28 00:05:33;;;;;;;35.55;18.10;;;;;;;4.90;59.45;98290.19;4398699;32;20480;-93
2020/12/28 00:07:59;;;;;;;36.15;17.15;;;;;;;4.83;59.44;98284.41;4398994;32;20147;-93
2020/12/28 00:10:24;;;;;;;35.33;18.23;;;;;;;4.86;59.45;98286.03;4398289;32;20491;-92
2020/12/28 00:12:50;;;;;;;41.15;19.87;;;;;;;4.58;59.44;98276.59;4398654;32;20510;-91
2020/12/28 00:15:26;;;;;;;41.67;18.87;;;;;;;4.63;59.43;98274.72;4398428;32;20148;-93
2020/12/28 00:17:56;;;;;;;36.42;18.70;;;;;;;4.78;59.44;98281.13;4398594;32;20656;-93
2020/12/28 00:20:23;;;;;;;34.90;19.20;;;;;;;4.77;59.44;98270.87;4398472;32;20719;-92
2020/12/28 00:22:48;;;;;;;34.78;18.58;;;;;;;4.93;59.46;98265.16;4398751;32;20110;-92
2020/12/28 00:25:14;;;;;;;38.20;18.40;;;;;;;4.77;59.44;98257.97;4397697;32;26242;-91
2020/12/28 00:27:39;;;;;;;35.90;18.65;;;;;;;4.56;59.43;98262.94;4398370;32;20119;-93
2020/12/28 00:30:05;;;;;;;36.03;18.67;;;;;;;4.52;59.43;98256.19;4398300;32;20153;-92
2020/12/28 00:32:33;;;;;;;34.97;18.67;;;;;;;4.85;59.45;98253.41;4423816;32;20675;-91
2020/12/28 00:34:58;;;;;;;37.20;18.70;;;;;;;4.34;59.41;98254.19;4398694;32;20112;-93
2020/12/28 00:37:24;;;;;;;33.55;18.02;;;;;;;4.75;59.45;98257.19;4398707;32;20131;-93
2020/12/28 00:39:49;;;;;;;35.10;18.33;;;;;;;4.71;59.44;98243.53;4398575;32;20173;-94
2020/12/28 00:42:15;;;;;;;33.67;18.42;;;;;;;4.67;59.44;98238.53;4398322;32;20368;-93
2020/12/28 00:44:40;;;;;;;38.67;18.92;;;;;;;4.86;59.45;98230.16;4398835;32;20374;-94
2020/12/28 00:47:05;;;;;;;38.05;19.60;;;;;;;4.66;59.44;98222.22;4397926;32;20149;-92
2020/12/28 00:49:31;;;;;;;36.47;18.20;;;;;;;4.79;59.45;98222.69;4410158;32;21397;-91
2020/12/28 00:51:56;;;;;;;36.83;18.70;;;;;;;4.85;59.45;98227.63;4396798;32;20175;-89
2020/12/28 00:54:22;;;;;;;34.95;17.08;;;;;;;4.84;59.44;98226.78;4409049;32;20116;-91
2020/12/28 00:56:49;;;;;;;38.47;19.27;;;;;;;5.01;59.47;98223.66;4396342;32;20140;-90
2020/12/28 00:59:14;;;;;;;33.95;16.92;;;;;;;4.88;59.46;98222.38;4396541;32;20415;-91
2020/12/28 01:01:40;;;;;;;39.63;18.92;;;;;;;5.08;59.46;98214.81;4396342;32;20154;-92
2020/12/28 01:04:05;;;;;;;32.58;17.30;;;;;;;4.87;59.46;98212.94;4396302;32;21709;-90
2020/12/28 01:06:31;;;;;;;38.22;17.52;;;;;;;4.90;59.45;98212.84;4396788;32;20129;-92
2020/12/28 01:08:56;;;;;;;32.85;16.50;;;;;;;5.07;59.46;98209.69;4411105;32;20450;-91
2020/12/28 01:11:21;;;;;;;33.60;17.45;;;;;;;5.29;59.47;98202.06;4399240;32;20137;-91
2020/12/28 01:13:47;;;;;;;32.30;16.17;;;;;;;4.72;59.45;98196.25;4396582;32;20168;-94
2020/12/28 01:16:12;;;;;;;36.10;16.60;;;;;;;4.87;59.46;98179.44;4397121;32;28592;-93
2020/12/28 01:18:37;;;;;;;35.30;16.90;;;;;;;5.06;59.46;98175.34;4410395;32;20157;-92
2020/12/28 01:21:03;;;;;;;32.15;16.55;;;;;;;5.10;59.47;98176.91;4396921;32;20375;-90
2020/12/28 01:23:28;;;;;;;32.58;16.15;;;;;;;4.94;59.46;98168.00;4407932;32;20439;-91
2020/12/28 01:25:55;;;;;;;30.52;15.55;;;;;;;4.93;59.45;98166.31;4396585;32;20113;-91
2020/12/28 01:28:20;;;;;;;31.42;16.27;;;;;;;4.82;59.45;98158.13;4396156;32;20169;-91
2020/12/28 01:30:46;;;;;;;31.55;16.42;;;;;;;4.86;59.45;98159.72;4396246;32;20511;-90
2020/12/28 01:33:11;;;;;;;27.85;15.18;;;;;;;5.00;59.46;98148.94;4395824;32;20193;-90
2020/12/28 01:35:36;;;;;;;27.15;14.90;;;;;;;5.24;59.47;98130.00;4395636;32;21967;-90
2020/12/28 01:38:02;;;;;;;29.35;15.20;;;;;;;5.04;59.46;98127.28;4395870;32;20102;-90
2020/12/28 01:40:31;;;;;;;26.58;14.18;;;;;;;5.09;59.47;98128.81;4395963;32;20098;-91
2020/12/28 01:42:56;;;;;;;29.23;15.63;;;;;;;5.07;59.46;98117.69;4409088;32;20172;-91
2020/12/28 01:45:22;;;;;;;27.58;14.95;;;;;;;5.14;59.47;98114.00;4396383;32;24379;-92
2020/12/28 01:47:47;;;;;;;25.62;13.65;;;;;;;5.15;59.46;98114.84;4395402;32;20450;-89
2020/12/28 01:50:12;;;;;;;24.05;13.55;;;;;;;5.04;59.46;98114.41;4407801;32;20137;-93
2020/12/28 01:52:38;;;;;;;26.62;13.62;;;;;;;5.02;59.46;98101.56;4395198;32;22660;-90
2020/12/28 01:55:03;;;;;;;26.80;13.52;;;;;;;5.16;59.47;98099.31;4396757;32;20442;-89
2020/12/28 01:57:29;;;;;;;22.75;12.95;;;;;;;5.22;59.47;98091.38;4397521;32;20385;-90
2020/12/28 01:59:54;;;;;;;25.77;13.07;;;;;;;5.18;59.47;98086.34;4398115;32;20478;-93
2020/12/28 02:02:20;;;;;;;23.87;12.00;;;;;;;5.35;59.47;98096.06;4398799;32;22912;-94
2020/12/28 02:04:45;;;;;;;22.02;11.77;;;;;;;5.39;59.49;98102.78;4399523;32;20129;-94
2020/12/28 02:07:11;;;;;;;24.35;12.48;;;;;;;5.47;59.49;98108.50;4399698;32;20457;-93
2020/12/28 02:09:36;;;;;;;22.00;12.25;;;;;;;5.73;59.49;98098.03;4400036;32;20117;-92
2020/12/28 02:12:01;;;;;;;22.40;11.75;;;;;;;5.66;59.49;98106.88;4399564;32;20121;-94
2020/12/28 02:14:27;;;;;;;27.98;12.55;;;;;;;5.42;59.48;98098.34;4398980;32;21233;-93
2020/12/28 02:16:53;;;;;;;22.70;12.05;;;;;;;5.45;59.48;98103.41;4398000;32;20109;-91
2020/12/28 02:19:18;;;;;;;22.42;12.52;;;;;;;5.70;59.50;98100.72;4397963;32;20101;-91
2020/12/28 02:21:44;;;;;;;26.73;13.00;;;;;;;5.61;59.50;98098.47;4398499;32;20124;-92
2020/12/28 02:24:10;;;;;;;25.23;12.93;;;;;;;5.53;59.49;98095.37;4411466;32;20086;-92
2020/12/28 02:26:35;;;;;;;20.27;12.05;;;;;;;5.49;59.49;98093.81;4398796;32;20129;-91
2020/12/28 02:29:01;;;;;;;22.52;11.73;;;;;;;5.40;59.48;98087.22;4397367;32;20105;-90
2020/12/28 02:31:26;;;;;;;23.30;12.15;;;;;;;5.42;59.48;98084.59;4397367;32;20378;-91
2020/12/28 02:33:51;;;;;;;26.02;12.85;;;;;;;5.61;59.48;98087.31;4397018;32;20133;-92
2020/12/28 02:36:17;;;;;;;23.08;13.75;;;;;;;5.74;59.50;98086.81;4397963;32;20146;-91
2020/12/28 02:38:42;;;;;;;24.60;12.80;;;;;;;5.69;59.50;98077.56;4397831;32;20137;-91
2020/12/28 02:41:08;;;;;;;22.90;12.68;;;;;;;5.80;59.50;98070.22;4397868;32;20511;-92
2020/12/28 02:43:33;;;;;;;23.87;13.85;;;;;;;5.78;59.50;98064.28;4398847;32;20189;-92
2020/12/28 02:45:59;;;;;;;27.42;13.48;;;;;;;5.71;59.50;98068.84;4411587;32;24897;-92
2020/12/28 02:48:24;;;;;;;24.17;12.52;;;;;;;6.01;59.52;98064.22;4399215;32;20685;-93
2020/12/28 02:50:50;;;;;;;24.20;12.88;;;;;;;5.77;59.51;98066.03;4398999;32;20163;-93
2020/12/28 02:53:15;;;;;;;23.70;13.30;;;;;;;5.96;59.51;98070.50;4399097;32;20093;-94
2020/12/28 02:55:40;;;;;;;21.90;11.93;;;;;;;5.75;59.50;98064.41;4411353;32;20160;-93
2020/12/28 02:58:06;;;;;;;26.15;13.82;;;;;;;5.82;59.50;98055.50;4399031;32;20125;-93
2020/12/28 03:00:31;;;;;;;24.02;12.20;;;;;;;5.95;59.51;98051.56;4398801;32;21629;-95
2020/12/28 03:02:57;;;;;;;21.73;11.23;;;;;;;5.97;59.51;98049.78;4412512;32;20136;-95
2020/12/28 03:05:22;;;;;;;26.00;13.07;;;;;;;6.00;59.51;98041.87;4398725;32;20728;-94
2020/12/28 03:07:47;;;;;;;23.33;12.73;;;;;;;5.89;59.51;98043.19;4399802;32;20121;-95
2020/12/28 03:10:13;;;;;;;24.98;12.75;;;;;;;6.09;59.52;98049.25;4399339;32;26770;-95
2020/12/28 03:12:38;;;;;;;23.25;13.15;;;;;;;5.80;59.50;98045.25;4397926;32;20461;-92
2020/12/28 03:15:04;;;;;;;24.70;13.13;;;;;;;5.93;59.51;98032.72;4410997;32;20160;-92
2020/12/28 03:17:29;;;;;;;25.52;14.10;;;;;;;5.83;59.50;98036.53;4397926;32;20144;-91
2020/12/28 03:19:54;;;;;;;28.48;14.20;;;;;;;5.81;59.50;98030.59;4410266;32;20158;-92
2020/12/28 03:22:20;;;;;;;26.70;14.90;;;;;;;5.88;59.50;98042.34;4397997;32;20098;-91
2020/12/28 03:24:45;;;;;;;26.60;14.50;;;;;;;5.72;59.50;98041.28;4409619;32;20137;-91
2020/12/28 03:27:10;;;;;;;23.25;12.90;;;;;;;5.53;59.49;98036.84;4409754;32;20142;-92
2020/12/28 03:29:36;;;;;;;28.10;14.60;;;;;;;5.69;59.50;98029.34;4398403;32;20145;-93
2020/12/28 03:32:02;;;;;;;24.85;13.10;;;;;;;5.53;59.49;98033.44;4398089;32;20168;-91
2020/12/28 03:34:27;;;;;;;28.67;13.93;;;;;;;5.60;59.48;98034.84;4397752;32;20093;-92
2020/12/28 03:36:53;;;;;;;26.58;15.32;;;;;;;5.55;59.49;98026.47;4397194;32;27527;-91
2020/12/28 03:39:19;;;;;;;25.37;13.95;;;;;;;5.66;59.49;98019.13;4397946;32;20173;-92
2020/12/28 03:41:44;;;;;;;25.50;13.60;;;;;;;5.44;59.48;98005.38;4398063;32;20109;-91
2020/12/28 03:44:09;;;;;;;27.98;15.38;;;;;;;5.51;59.49;98007.69;4397842;32;22099;-91
2020/12/28 03:46:35;;;;;;;26.70;14.45;;;;;;;5.61;59.48;98012.47;4397633;32;20143;-91
2020/12/28 03:49:00;;;;;;;25.95;14.43;;;;;;;5.59;59.49;98009.94;4398208;32;20188;-94
2020/12/28 03:51:26;;;;;;;26.73;14.50;;;;;;;5.40;59.48;98003.81;4411080;32;26552;-93
2020/12/28 03:53:54;;;;;;;32.17;16.55;;;;;;;5.52;59.48;98018.84;4398740;32;20398;-93
2020/12/28 03:56:19;;;;;;;28.80;15.43;;;;;;;5.60;59.49;98014.22;4398694;32;20478;-93
2020/12/28 03:58:45;;;;;;;29.42;15.15;;;;;;;5.73;59.50;98017.16;4398654;32;20159;-92
2020/12/28 04:01:10;;;;;;;28.10;15.15;;;;;;;5.82;59.50;98011.63;4398096;32;22482;-92
2020/12/28 04:03:36;;;;;;;26.85;15.82;;;;;;;5.86;59.50;98013.16;4410609;32;20104;-92
2020/12/28 04:06:01;;;;;;;27.23;14.13;;;;;;;5.80;59.50;98010.84;4397988;32;20106;-91
2020/12/28 04:08:27;;;;;;;28.90;15.27;;;;;;;5.80;59.50;97998.78;4397330;32;22484;-92
2020/12/28 04:10:53;;;;;;;29.10;14.82;;;;;;;5.68;59.49;97990.66;4410234;32;20142;-92
2020/12/28 04:13:18;;;;;;;30.12;15.65;;;;;;;5.57;59.49;97993.69;4398240;32;20128;-92
2020/12/28 04:15:43;;;;;;;31.42;16.67;;;;;;;5.46;59.48;97985.56;4397565;32;20145;-92
2020/12/28 04:18:09;;;;;;;30.40;16.02;;;;;;;5.36;59.48;97986.78;4409513;32;23974;-91
2020/12/28 04:20:34;;;;;;;27.58;15.75;;;;;;;5.31;59.47;97978.41;4397663;32;20402;-93
2020/12/28 04:23:00;;;;;;;30.00;15.65;;;;;;;5.32;59.48;97983.50;4398393;32;20153;-92
2020/12/28 04:25:25;;;;;;;31.12;16.52;;;;;;;5.58;59.49;97987.63;4397816;32;20124;-92
2020/12/28 04:27:50;;;;;;;32.10;16.23;;;;;;;5.68;59.49;97990.66;4398692;32;20470;-93
2020/12/28 04:30:16;;;;;;;31.62;16.70;;;;;;;5.58;59.49;97985.03;4398222;32;23199;-93
2020/12/28 04:32:41;;;;;;;30.70;15.90;;;;;;;5.61;59.49;97979.75;4398226;32;22240;-93
2020/12/28 04:35:07;;;;;;;28.35;16.10;;;;;;;5.82;59.50;97976.31;4410650;32;21416;-92
2020/12/28 04:37:32;;;;;;;37.20;17.83;;;;;;;5.81;59.50;97976.38;4398045;32;20180;-93
2020/12/28 04:39:57;;;;;;;39.05;18.25;;;;;;;5.95;59.51;97970.69;4398473;32;20156;-91
2020/12/28 04:42:27;;;;;;;32.38;17.20;;;;;;;5.67;59.49;97964.00;4398161;32;20105;-94
2020/12/28 04:44:52;;;;;;;34.10;18.70;;;;;;;5.54;59.49;97961.09;4399253;32;20173;-94
2020/12/28 04:47:18;;;;;;;30.48;17.30;;;;;;;5.66;59.49;97943.44;4398818;32;20104;-93
2020/12/28 04:49:45;;;;;;;33.85;17.50;;;;;;;5.61;59.48;97942.78;4398656;32;20405;-94
2020/12/28 04:52:11;;;;;;;32.50;16.75;;;;;;;5.35;59.48;97941.25;4411559;32;20085;-94
2020/12/28 04:54:38;;;;;;;34.53;17.12;;;;;;;5.42;59.48;97940.09;4398896;32;20143;-94
2020/12/28 04:57:03;;;;;;;35.33;18.20;;;;;;;5.51;59.49;97935.44;4398914;32;20131;-94
2020/12/28 04:59:29;;;;;;;32.20;16.75;;;;;;;5.47;59.49;97943.37;4398769;32;20113;-95
2020/12/28 05:01:54;;;;;;;31.58;16.55;;;;;;;5.50;59.48;97948.41;4397792;32;20147;-92
2020/12/28 05:04:24;;;;;;;35.83;17.17;;;;;;;5.40;59.49;97947.06;4396922;32;20154;-91
2020/12/28 05:07:04;;;;;;;32.15;17.30;;;;;;;5.65;59.50;97936.59;4398123;32;20117;-94
2020/12/28 05:09:29;;;;;;;30.03;17.83;;;;;;;5.77;59.50;97942.09;4398503;32;20352;-96
2020/12/28 05:11:56;;;;;;;35.10;17.98;;;;;;;5.66;59.49;97941.69;4410669;32;20196;-93
2020/12/28 05:14:21;;;;;;;36.00;17.87;;;;;;;5.44;59.48;97933.13;4397367;32;20102;-93
2020/12/28 05:16:47;;;;;;;34.28;18.62;;;;;;;5.12;59.47;97940.41;4397235;32;20165;-91
2020/12/28 05:19:12;;;;;;;36.45;19.73;;;;;;;5.27;59.48;97935.56;4396918;32;20871;-91
2020/12/28 05:21:38;;;;;;;38.58;19.45;;;;;;;5.41;59.48;97928.94;4408897;32;20109;-90
2020/12/28 05:24:13;;;;;;;37.78;20.02;;;;;;;5.49;59.49;97931.22;4408750;32;20132;-91
2020/12/28 05:26:40;;;;;;;33.60;19.05;;;;;;;5.44;59.48;97930.56;4396119;32;20139;-90
2020/12/28 05:29:06;;;;;;;34.80;18.02;;;;;;;5.58;59.49;97917.09;4408464;32;20438;-89
2020/12/28 05:31:31;;;;;;;36.20;18.00;;;;;;;5.31;59.48;97914.75;4409511;32;24939;-90
2020/12/28 05:33:56;;;;;;;35.38;19.55;;;;;;;5.60;59.49;97915.28;4396999;32;20155;-88
2020/12/28 05:36:22;;;;;;;36.65;18.27;;;;;;;5.61;59.49;97898.91;4395929;32;29053;-89
2020/12/28 05:38:48;;;;;;;38.92;18.33;;;;;;;5.60;59.49;97903.22;4422307;32;20109;-89
2020/12/28 05:41:13;;;;;;;37.33;18.17;;;;;;;5.64;59.50;97903.94;4409126;32;20776;-88
2020/12/28 05:43:39;;;;;;;35.35;17.85;;;;;;;5.57;59.49;97911.09;4409516;32;20196;-89
2020/12/28 05:46:04;;;;;;;32.03;17.33;;;;;;;5.26;59.48;97897.78;4409890;32;20156;-90
2020/12/28 05:48:30;;;;;;;35.70;18.45;;;;;;;5.31;59.47;97895.84;4396231;32;25672;-88
2020/12/28 05:50:56;;;;;;;34.83;18.45;;;;;;;5.25;59.48;97891.78;4396354;32;20160;-88
2020/12/28 05:53:25;;;;;;;35.42;18.80;;;;;;;5.22;59.47;97892.75;4409343;32;20133;-88
2020/12/28 05:55:51;;;;;;;34.38;17.70;;;;;;;5.27;59.48;97896.87;4396410;32;20118;-88
2020/12/28 05:58:17;;;;;;;35.70;18.02;;;;;;;5.50;59.49;97896.78;4409261;32;20115;-89
2020/12/28 06:00:44;;;;;;;34.92;18.00;;;;;;;5.48;59.49;97904.59;4396433;32;20101;-88
2020/12/28 06:03:09;;;;;;;32.20;16.62;;;;;;;5.51;59.49;97908.78;4396445;32;20109;-87
2020/12/28 06:05:35;;;;;;;31.75;17.40;;;;;;;5.65;59.50;97932.25;4408827;32;20182;-88
2020/12/28 06:08:00;;;;;;;36.45;18.05;;;;;;;5.67;59.49;97935.63;4407111;32;21166;-88
2020/12/28 06:10:26;;;;;;;39.55;18.20;;;;;;;5.60;59.49;97928.19;4394692;32;23987;-89
2020/12/28 06:12:57;;;;;;;38.78;19.80;;;;;;;5.51;59.49;97924.28;4396031;32;20145;-89
2020/12/28 06:15:23;;;;;;;38.92;19.30;;;;;;;5.33;59.48;97919.84;4409248;32;20541;-89
2020/12/28 06:17:48;;;;;;;39.85;19.62;;;;;;;5.58;59.49;97915.38;4408663;32;20751;-90
2020/12/28 06:20:14;;;;;;;38.75;19.12;;;;;;;5.36;59.48;97925.72;4396516;32;20093;-89
2020/12/28 06:22:40;;;;;;;41.78;19.85;;;;;;;5.64;59.49;97932.31;4396779;32;20402;-89
2020/12/28 06:25:07;;;;;;;34.42;18.77;;;;;;;5.45;59.48;97929.69;4409410;32;20147;-90
2020/12/28 06:27:33;;;;;;;35.38;18.73;;;;;;;5.61;59.49;97930.72;4409336;32;20090;-88
2020/12/28 06:30:08;;;;;;;34.17;19.05;;;;;;;5.69;59.50;97941.59;4409321;32;20130;-89
2020/12/28 06:32:34;;;;;;;38.78;19.62;;;;;;;5.69;59.50;97933.84;4422083;32;20105;-88
2020/12/28 06:35:01;;;;;;;37.00;18.87;;;;;;;5.83;59.50;97938.41;4396516;32;20148;-89
2020/12/28 06:37:27;;;;;;;36.40;16.98;;;;;;;5.93;59.51;97947.50;4423072;32;20087;-88
2020/12/28 06:39:59;;;;;;;34.83;17.75;;;;;;;6.03;59.52;97946.19;4408832;32;20119;-88
2020/12/28 06:42:24;;;;;;;34.28;17.98;;;;;;;5.87;59.50;97947.72;4409122;32;20165;-90
2020/12/28 06:44:49;;;;;;;32.13;16.90;;;;;;;6.05;59.51;97948.72;4396508;32;20135;-90
2020/12/28 06:47:24;;;;;;;35.58;16.67;;;;;;;6.09;59.52;97945.94;4396449;32;20506;-89
2020/12/28 06:49:50;;;;;;;32.60;15.63;;;;;;;5.87;59.51;97951.13;4395877;32;22033;-89
2020/12/28 06:52:15;;;;;;;32.90;17.25;;;;;;;5.91;59.51;97951.03;4396364;32;20382;-88
2020/12/28 06:54:41;;;;;;;34.15;16.08;;;;;;;6.12;59.51;97956.13;4396266;32;20132;-89
2020/12/28 06:57:07;;;;;;;30.05;15.32;;;;;;;6.08;59.52;97969.25;4409224;32;20458;-91
2020/12/28 06:59:33;;;;;;;31.00;16.20;;;;;;;6.19;59.52;97974.81;4396294;32;20124;-89
2020/12/28 07:01:59;;;;;;;30.50;16.25;;;;;;;6.15;59.52;97981.84;4395411;32;20109;-89
2020/12/28 07:04:25;;;;;;;29.98;15.95;;;;;;;6.26;59.53;97981.37;4409031;32;20182;-88
2020/12/28 07:07:00;;;;;;;37.47;16.40;;;;;;;6.27;59.54;97977.91;4409058;32;20093;-89
2020/12/28 07:09:26;;;;;;;30.50;15.60;;;;;;;6.10;59.52;97978.59;4408969;32;20111;-89
2020/12/28 07:11:51;;;;;;;37.03;18.55;;;;;;;6.22;59.53;97976.41;4421802;32;20430;-88
2020/12/28 07:14:18;;;;;;;31.83;16.33;;;;;;;6.17;59.52;97975.78;4408406;32;21896;-90
2020/12/28 07:16:43;;;;;;;37.67;19.55;;;;;;;6.11;59.52;97982.88;4396173;32;20093;-90
2020/12/28 07:19:08;;;;;;;36.08;17.40;;;;;;;6.26;59.52;97980.53;4395775;32;29935;-89
2020/12/28 07:21:34;;;;;;;37.53;17.10;;;;;;;6.24;59.53;97996.13;4408430;32;20145;-89
2020/12/28 07:23:59;;;;;;;39.95;17.58;;;;;;;6.45;59.54;97995.19;4395737;32;22851;-88
2020/12/28 07:26:27;;;;;;;40.17;18.33;;;;;;;6.34;59.53;97989.63;4408871;32;20557;-89
2020/12/28 07:28:52;;;;;;;35.25;17.45;;;;;;;6.35;59.54;97993.91;4408997;32;20097;-88
2020/12/28 07:31:20;;;;;;;35.05;17.92;;;;;;;6.25;59.52;98000.38;4395440;32;25222;-90
2020/12/28 07:33:46;;;;;;;37.85;17.48;;;;;;;6.10;59.52;97995.84;4396102;32;20513;-89
2020/12/28 07:36:13;;;;;;;35.72;16.00;;;;;;;6.27;59.52;97988.22;4396055;32;20097;-90
2020/12/28 07:38:39;;;;;;;42.30;17.52;;;;;;;6.27;59.52;97990.81;4396265;32;20533;-88
2020/12/28 07:41:04;;;;;;;37.85;17.25;;;;;;;6.30;59.53;98003.59;4396389;32;20144;-90
2020/12/28 07:43:30;;;;;;;36.58;16.08;;;;;;;6.11;59.52;98006.09;4396695;32;20181;-89
2020/12/28 07:46:27;;;;;;;37.67;16.00;;;;;;;6.10;59.52;98012.19;4396405;32;20529;-89
2020/12/28 07:48:53;;;;;;;33.22;16.23;;;;;;;6.14;59.53;98002.56;4396097;32;20147;-89
2020/12/28 07:51:19;;;;;;;38.65;16.65;;;;;;;6.25;59.52;98002.13;4392779;32;20142;-91
2020/12/28 07:53:47;;;;;;;35.08;16.45;;;;;;;6.19;59.52;97999.81;4392522;32;20128;-93
2020/12/28 07:56:46;;;;;;;35.30;16.20;;;;;;;6.43;59.54;97991.00;4382597;32;20116;-91
2020/12/28 07:59:27;;;;;;;34.03;14.77;;;;;;;6.29;59.53;97989.00;4395293;32;20078;-91
2020/12/28 08:01:53;;;;;;;34.25;14.68;;;;;;;6.36;59.54;97994.75;4409495;32;20102;-93
2020/12/28 08:04:22;;;;;;;29.48;15.27;;;;;;;6.26;59.52;98009.81;4384067;32;20160;-95
2020/12/28 08:06:47;;;;;;;28.38;14.38;;;;;;;6.33;59.53;98002.63;4406327;32;20096;-94
2020/12/28 08:09:13;;;;;;;33.30;14.25;;;;;;;6.46;59.54;98007.22;4381417;32;20094;-92
2020/12/28 08:11:38;;;;;;;29.92;14.68;;;;;;;6.30;59.53;98008.75;4368250;32;25011;-92
2020/12/28 08:14:10;;;;;;;35.45;14.95;;;;;;;6.33;59.53;98023.28;4369176;32;20169;-95
2020/12/28 08:16:35;;;;;;;33.35;14.27;;;;;;;6.40;59.54;98019.56;4369101;32;20107;-93
2020/12/28 08:19:01;;;;;;;32.00;14.87;;;;;;;6.50;59.54;98013.09;4368115;32;20267;-94
2020/12/28 08:21:37;;;;;;;31.62;15.02;;;;;;;6.27;59.52;98016.66;4380382;32;20181;-91
2020/12/28 08:24:03;;;;;;;28.67;14.25;;;;;;;6.52;59.54;98013.00;4380019;32;20213;-91
2020/12/28 08:26:28;;;;;;;32.03;14.95;;;;;;;6.53;59.54;98015.53;4367139;32;20945;-91
2020/12/28 08:28:57;;;;;;;27.85;13.52;;;;;;;6.64;59.55;98007.31;4381218;32;20097;-91
2020/12/28 08:31:35;;;;;;;31.92;14.80;;;;;;;6.57;59.54;98019.66;4368670;32;20114;-91
2020/12/28 08:34:02;;;;;;;26.25;13.85;;;;;;;6.81;59.56;98014.31;4380433;32;20094;-91
2020/12/28 08:36:27;;;;;;;29.65;14.63;;;;;;;6.72;59.55;98010.41;4379609;32;20090;-91
2020/12/28 08:38:52;;;;;;;29.85;14.73;;;;;;;6.92;59.57;98000.00;4367100;32;20136;-90
2020/12/28 08:41:18;;;;;;;37.78;19.62;;;;;;;6.66;59.55;98006.34;4376763;32;23276;-91
2020/12/28 08:43:47;;;;;;;33.72;18.25;;;;;;;6.67;59.55;98002.84;4378757;32;20129;-91
2020/12/28 08:46:12;;;;;;;30.27;15.57;;;;;;;6.71;59.55;97993.22;4366655;32;20102;-90
2020/12/28 08:48:40;;;;;;;35.92;17.05;;;;;;;6.80;59.55;97997.13;4364787;32;20424;-90
2020/12/28 08:51:15;;;;;;;29.30;17.25;;;;;;;6.83;59.56;98003.00;4365124;32;20152;-91
2020/12/28 08:53:47;;;;;;;27.80;16.85;;;;;;;6.97;59.57;98000.62;4391250;32;20605;-89
2020/12/28 08:56:13;;;;;;;31.17;14.85;;;;;;;6.98;59.57;98007.50;4379924;32;20453;-89
2020/12/28 08:58:38;;;;;;;39.03;22.23;;;;;;;6.94;59.56;98020.63;4402653;32;20101;-91
2020/12/28 09:01:04;;;;;;;30.15;18.27;;;;;;;7.02;59.57;98009.03;4379514;32;20134;-90
2020/12/28 09:03:39;;;;;;;41.45;24.02;;;;;;;6.96;59.57;98017.06;4392667;32;20153;-90
2020/12/28 09:06:05;;;;;;;33.72;16.95;;;;;;;6.76;59.55;98019.69;4384485;32;20094;-92
2020/12/28 09:08:30;;;;;;;30.08;17.08;;;;;;;6.74;59.56;98024.09;4390784;32;20121;-92
2020/12/28 09:10:56;;;;;;;30.80;18.10;;;;;;;6.47;59.54;98034.75;4380403;32;20157;-91
2020/12/28 09:13:21;;;;;;;31.80;17.67;;;;;;;6.86;59.56;98044.25;4380358;32;20149;-89
2020/12/28 09:15:46;;;;;;;32.03;17.58;;;;;;;6.92;59.56;98036.22;4392437;32;25041;-90
2020/12/28 09:18:12;;;;;;;32.63;17.17;;;;;;;6.85;59.56;98039.97;4392093;32;27327;-91
2020/12/28 09:20:37;;;;;;;34.10;16.80;;;;;;;6.89;59.56;98038.94;4379833;32;20130;-91
2020/12/28 09:23:02;;;;;;;39.70;25.42;;;;;;;6.83;59.56;98026.28;4391986;32;24971;-92
2020/12/28 09:25:28;;;;;;;32.83;18.92;;;;;;;6.95;59.57;98022.31;4392915;32;20706;-90
2020/12/28 09:27:53;;;;;;;39.85;20.67;;;;;;;6.84;59.56;98009.84;4379990;32;20133;-90
2020/12/28 09:30:19;;;;;;;37.85;20.45;;;;;;;6.84;59.56;98016.75;4379242;32;22225;-91
2020/12/28 09:32:44;;;;;;;36.67;20.02;;;;;;;6.68;59.55;98009.72;4392396;32;24266;-93
2020/12/28 09:35:09;;;;;;;40.15;24.15;;;;;;;6.63;59.55;98010.81;4379831;32;23663;-91
2020/12/28 09:37:35;;;;;;;32.40;18.35;;;;;;;6.63;59.55;98005.66;4380320;32;20474;-90
2020/12/28 09:40:00;;;;;;;37.58;20.42;;;;;;;6.86;59.56;97999.44;4393056;32;20208;-91
2020/12/28 09:42:26;;;;;;;49.20;27.70;;;;;;;6.98;59.57;97997.13;4392303;32;20137;-91
2020/12/28 09:44:51;;;;;;;31.75;17.60;;;;;;;6.99;59.57;97990.22;4380057;32;20422;-92
2020/12/28 09:47:17;;;;;;;28.73;15.52;;;;;;;6.68;59.55;97990.78;4391652;32;20135;-90
2020/12/28 09:49:43;;;;;;;29.05;16.10;;;;;;;6.61;59.55;97986.75;4379613;32;20106;-90
2020/12/28 09:52:09;;;;;;;30.60;16.08;;;;;;;6.93;59.56;97982.75;4380332;32;20161;-91
2020/12/28 09:54:34;;;;;;;26.77;17.02;;;;;;;7.00;59.57;97976.38;4392224;32;20086;-92
2020/12/28 09:57:10;;;;;;;28.25;16.37;;;;;;;6.77;59.56;97975.66;4393302;32;20098;-90
2020/12/28 09:59:37;;;;;;;32.28;16.95;;;;;;;7.11;59.58;97971.56;4380655;32;20525;-92
2020/12/28 10:02:03;;;;;;;31.15;17.48;;;;;;;7.21;59.58;97971.97;4379351;32;20115;-90
2020/12/28 10:04:28;;;;;;;29.15;14.68;;;;;;;7.46;59.59;97974.22;4379629;32;20124;-90
2020/12/28 10:06:54;;;;;;;29.00;15.45;;;;;;;7.44;59.59;97978.66;4379876;32;20118;-92
2020/12/28 10:09:19;;;;;;;31.77;16.98;;;;;;;7.53;59.59;97985.97;4379145;32;20164;-89
2020/12/28 10:11:45;;;;;;;30.50;16.80;;;;;;;7.63;59.61;97987.22;4390972;32;26200;-89
2020/12/28 10:14:10;;;;;;;30.00;14.68;;;;;;;7.63;59.61;97987.22;4379297;32;20164;-90
2020/12/28 10:16:35;;;;;;;25.58;15.13;;;;;;;7.61;59.61;97997.66;4393708;32;22733;-90
2020/12/28 10:19:01;;;;;;;27.75;15.82;;;;;;;7.28;59.59;97994.03;4393932;32;22361;-89
2020/12/28 10:21:27;;;;;;;29.67;15.80;;;;;;;7.15;59.58;97987.78;4394343;32;20128;-90
2020/12/28 10:23:52;;;;;;;33.65;16.95;;;;;;;7.49;59.60;97987.03;4381735;32;20093;-89
2020/12/28 10:26:22;;;;;;;30.75;15.85;;;;;;;7.33;59.59;97968.78;4394237;32;20086;-90
2020/12/28 10:28:48;;;;;;;28.95;16.92;;;;;;;7.68;59.60;97967.09;4392581;32;20177;-89
2020/12/28 10:31:14;;;;;;;30.08;16.50;;;;;;;7.90;59.61;97966.87;4381578;32;20156;-89
2020/12/28 10:33:48;;;;;;;33.38;16.70;;;;;;;7.59;59.60;97964.97;4395113;32;20081;-88
2020/12/28 10:36:17;;;;;;;32.13;16.90;;;;;;;7.55;59.60;97971.19;4381090;32;20169;-88
2020/12/28 10:38:46;;;;;;;36.15;18.12;;;;;;;7.59;59.60;97962.38;4393695;32;20149;-89
2020/12/28 10:41:11;;;;;;;32.63;16.95;;;;;;;7.64;59.60;97950.87;4381228;32;20255;-89
2020/12/28 10:43:37;;;;;;;32.47;16.17;;;;;;;7.55;59.60;97937.53;4380841;32;20141;-88
2020/12/28 10:46:07;;;;;;;35.03;17.42;;;;;;;6.97;59.57;97945.47;4393485;32;20113;-88
2020/12/28 10:48:37;;;;;;;35.40;17.42;;;;;;;7.15;59.57;97954.97;4406322;32;20116;-88
2020/12/28 10:51:03;;;;;;;32.28;16.83;;;;;;;7.44;59.59;97955.34;4406311;32;20118;-88
2020/12/28 10:53:31;;;;;;;33.67;16.90;;;;;;;7.54;59.59;97949.63;4406023;32;20085;-88
2020/12/28 10:55:57;;;;;;;34.88;16.08;;;;;;;7.20;59.58;97942.66;4393219;32;20439;-90
2020/12/28 10:58:22;;;;;;;32.00;16.33;;;;;;;7.07;59.57;97947.56;4395746;32;20133;-88
2020/12/28 11:00:51;;;;;;;34.33;17.80;;;;;;;7.12;59.58;97933.59;4396122;32;20173;-89
2020/12/28 11:03:17;;;;;;;39.47;22.30;;;;;;;7.34;59.59;97931.66;4396041;32;20093;-89
2020/12/28 11:05:42;;;;;;;37.60;20.50;;;;;;;7.07;59.57;97936.37;4396079;32;20443;-88
2020/12/28 11:08:07;;;;;;;36.90;17.60;;;;;;;7.09;59.57;97926.78;4409015;32;20148;-89
2020/12/28 11:10:33;;;;;;;32.65;16.35;;;;;;;7.19;59.58;97932.38;4421178;32;20136;-88
2020/12/28 11:12:58;;;;;;;37.20;19.55;;;;;;;6.94;59.57;97943.87;4422313;32;20359;-87
2020/12/28 11:15:26;;;;;;;34.30;16.90;;;;;;;7.15;59.57;97941.22;4421281;32;20207;-88
2020/12/28 11:17:51;;;;;;;35.90;17.23;;;;;;;7.30;59.58;97928.34;4395690;32;20126;-88
2020/12/28 11:20:17;;;;;;;34.85;18.85;;;;;;;7.42;59.59;97921.78;4395853;32;20135;-89